ナンディ の空港の天気 - METARとTAF

ナンディ国際空港 ( NFFN / NAN ) - フィジー ナンディ (ビティレブ島)
飛行場実況気象(Metar)
観測時間08/26 07:00 FJT (08/25 19:00 UTC)
風向・風速東 6m/s
視程10km以上
天気現象
少しの雲 雲底高度 910m
全天の4割程度の雲 雲底高度 1520m
気温20℃
湿度60%
気圧1015hPa
METARNFFN 251900Z 09012KT 9999 FEW030 SCT050 20/12 Q1015 NOSIG
過去の天気等 Google飛行場航空写真 Wunderground天気予報

過去48時間のMETAR

飛行場予報(TAF)
発表時間: 8/26 05:03 FJT (8/25 17:03 UTC)
予報対象時間: 26日6時 FJT ~ 27日6時 FJT
風向・風速東南東 6m/s
視程10km以上
全天の4割程度の雲 雲底高度 910m
全天の4割程度の雲 雲底高度 1520m
TAF NFFN 251703Z 2518/2618 11011KT 9999 SCT030 SCT050